Time;durP1;ratioP1;P1;durP2;ratioP2;P2;SDS_P1;SDS_P2;PMS_P1;PMS_P2;Temp;Humidity;BMP_temperature;BMP_pressure;BME280_temperature;BME280_humidity;BME280_pressure;Samples;Min_cycle;Max_cycle;Signal;HPM_P1;HPM_P2
2021/08/05 00:01:12;;;;;;;13.15;9.98;;;;;;;19.00;79.33;99389.75;130371;1087;114213;-58
2021/08/05 00:03:41;;;;;;;11.25;10.05;;;;;;;19.01;79.38;99374.00;130507;1087;23279;-58
2021/08/05 00:06:25;;;;;;;10.75;9.65;;;;;;;19.01;79.26;99374.00;130474;1087;22991;-58
2021/08/05 00:08:54;;;;;;;11.95;9.95;;;;;;;19.01;79.31;99376.77;130334;1087;115386;-58
2021/08/05 00:11:22;;;;;;;10.85;8.88;;;;;;;19.01;79.14;99374.00;130433;1087;23000;-58
2021/08/05 00:13:51;;;;;;;11.95;9.70;;;;;;;19.02;79.21;99373.69;130373;1087;113960;-58
2021/08/05 00:16:40;;;;;;;12.13;9.48;;;;;;;19.02;79.12;99370.92;130520;1087;22567;-58
2021/08/05 00:19:29;;;;;;;11.08;9.13;;;;;;;19.02;79.15;99367.34;130376;1087;114446;-58
2021/08/05 00:21:58;;;;;;;12.85;9.83;;;;;;;19.00;78.99;99356.62;130488;1087;22515;-58
2021/08/05 00:24:28;;;;;;;11.80;9.08;;;;;;;19.00;78.94;99356.62;130468;1090;22561;-58
2021/08/05 00:26:58;;;;;;;10.03;9.00;;;;;;;19.00;78.77;99351.09;130368;1087;115137;-58
2021/08/05 00:29:27;;;;;;;9.98;8.95;;;;;;;18.99;78.64;99351.41;130466;1087;22574;-58
2021/08/05 00:31:56;;;;;;;14.85;10.60;;;;;;;18.99;78.65;99348.65;130395;1087;114298;-58
2021/08/05 00:34:25;;;;;;;12.88;9.05;;;;;;;18.98;78.53;99344.25;130491;1087;22544;-58
2021/08/05 00:36:55;;;;;;;11.43;9.48;;;;;;;18.99;78.65;99349.46;130358;1089;114086;-58
2021/08/05 00:39:24;;;;;;;11.43;9.15;;;;;;;18.99;78.38;99343.13;130223;1087;22544;-61
2021/08/05 00:41:53;;;;;;;9.55;8.63;;;;;;;18.97;78.12;99351.72;130449;1089;22536;-61
2021/08/05 00:44:23;;;;;;;11.45;8.85;;;;;;;18.96;78.19;99341.81;130357;1087;114422;-61
2021/08/05 00:46:52;;;;;;;11.85;9.40;;;;;;;18.95;77.70;99344.88;130443;1087;22610;-61
2021/08/05 00:49:22;;;;;;;9.28;8.28;;;;;;;18.95;77.70;99344.88;130350;1087;115046;-60
2021/08/05 00:51:50;;;;;;;12.28;8.13;;;;;;;18.91;77.48;99339.17;130211;1089;22513;-60
2021/08/05 00:54:19;;;;;;;9.23;8.10;;;;;;;18.90;77.36;99334.78;130239;1090;23338;-60
2021/08/05 00:56:48;;;;;;;13.18;8.48;;;;;;;18.88;77.01;99331.55;129990;1089;113821;-60
2021/08/05 00:59:17;;;;;;;9.45;8.30;;;;;;;18.88;77.07;99339.02;130105;1090;22564;-60
2021/08/05 01:01:53;;;;;;;9.98;7.90;;;;;;;18.88;77.11;99336.26;130047;1090;114232;-60
2021/08/05 01:04:22;;;;;;;12.90;8.80;;;;;;;18.88;77.18;99334.31;130036;1090;23440;-60
2021/08/05 01:06:56;;;;;;;9.95;8.00;;;;;;;18.88;77.11;99333.50;130052;1089;22630;-60
2021/08/05 01:09:36;;;;;;;9.35;8.18;;;;;;;18.86;76.58;99333.81;129998;1090;114203;-61
2021/08/05 01:12:43;;;;;;;10.73;7.98;;;;;;;18.86;76.56;99332.99;130122;1089;22693;-60
2021/08/05 01:15:32;;;;;;;8.60;7.80;;;;;;;18.87;76.51;99326.34;129981;1090;114179;-61
2021/08/05 01:18:38;;;;;;;13.68;7.93;;;;;;;18.86;76.50;99324.71;125667;1092;26249;-60
2021/08/05 01:21:13;;;;;;;11.90;8.10;;;;;;;18.86;76.32;99331.05;125082;1093;113691;-62
2021/08/05 01:23:46;;;;;;;9.15;7.83;;;;;;;18.86;76.29;99324.71;129783;1092;23115;-62
2021/08/05 01:26:47;;;;;;;9.48;8.20;;;;;;;18.83;76.43;99331.68;129682;1093;113341;-62
2021/08/05 01:29:25;;;;;;;13.25;8.63;;;;;;;18.83;76.37;99325.34;129771;1092;22588;-60
2021/08/05 01:31:55;;;;;;;10.73;8.20;;;;;;;18.81;76.43;99331.17;129656;1093;113707;-60
2021/08/05 01:34:25;;;;;;;9.58;8.58;;;;;;;18.81;76.32;99324.84;129751;1093;22551;-60
2021/08/05 01:36:54;;;;;;;11.83;7.95;;;;;;;18.82;76.36;99324.53;129749;1093;23313;-60
2021/08/05 01:39:23;;;;;;;11.00;8.95;;;;;;;18.81;76.29;99322.08;129709;1093;114213;-58
2021/08/05 01:41:52;;;;;;;10.80;8.55;;;;;;;18.81;76.32;99324.84;129806;1093;23135;-58
2021/08/05 01:44:21;;;;;;;11.65;9.30;;;;;;;18.80;76.40;99320.45;129658;1093;114343;-58
2021/08/05 01:46:50;;;;;;;13.33;8.93;;;;;;;18.80;76.20;99315.74;129821;1093;22623;-58
2021/08/05 01:49:19;;;;;;;9.93;8.45;;;;;;;18.78;76.45;99315.24;129717;1092;113898;-58
2021/08/05 01:51:48;;;;;;;9.68;8.18;;;;;;;18.77;76.50;99305.33;129737;1093;22783;-58
2021/08/05 01:54:17;;;;;;;10.00;8.78;;;;;;;18.77;76.66;99313.61;129741;1093;22561;-58
2021/08/05 01:56:46;;;;;;;10.78;8.68;;;;;;;18.75;76.47;99312.33;129655;1093;113850;-58
2021/08/05 01:59:15;;;;;;;9.63;8.20;;;;;;;18.76;76.57;99308.41;129787;1093;22568;-58
2021/08/05 02:01:45;;;;;;;9.85;8.38;;;;;;;18.74;76.44;99308.75;129658;1093;113685;-58
2021/08/05 02:04:17;;;;;;;11.15;9.48;;;;;;;18.74;76.42;99314.27;129740;1092;22579;-58
2021/08/05 02:06:51;;;;;;;12.50;8.90;;;;;;;18.72;76.51;99313.77;129773;1093;22532;-58
2021/08/05 02:09:29;;;;;;;12.08;8.13;;;;;;;18.74;76.68;99313.45;129641;1093;113490;-58
2021/08/05 02:11:58;;;;;;;9.30;8.20;;;;;;;18.71;76.50;99312.95;129777;1092;22523;-58
2021/08/05 02:14:27;;;;;;;11.35;8.30;;;;;;;18.71;76.48;99310.19;129671;1093;113584;-58
2021/08/05 02:16:56;;;;;;;12.08;8.55;;;;;;;18.70;76.76;99310.50;129800;1093;23565;-58
2021/08/05 02:19:25;;;;;;;12.18;9.45;;;;;;;18.71;76.73;99306.61;129610;1093;113836;-58
2021/08/05 02:21:56;;;;;;;10.10;8.53;;;;;;;18.69;76.91;99311.63;129769;1093;22657;-57
2021/08/05 02:24:28;;;;;;;11.23;9.20;;;;;;;18.67;76.81;99303.67;129735;1093;22570;-58
2021/08/05 02:26:58;;;;;;;11.00;9.18;;;;;;;18.66;76.97;99313.08;129673;1093;115240;-58
2021/08/05 02:29:28;;;;;;;10.63;9.50;;;;;;;18.63;76.81;99310.13;129741;1093;22593;-58
2021/08/05 02:31:57;;;;;;;12.60;8.58;;;;;;;18.62;77.02;99314.83;129640;1093;114434;-58
2021/08/05 02:34:26;;;;;;;9.95;8.13;;;;;;;18.60;77.31;99310.78;129757;1094;22580;-58
2021/08/05 02:36:55;;;;;;;10.93;8.90;;;;;;;18.59;77.22;99311.91;129744;1093;22610;-57
2021/08/05 02:39:27;;;;;;;9.43;8.43;;;;;;;18.58;77.32;99313.00;129670;1093;115121;-61
2021/08/05 02:41:55;;;;;;;12.20;9.75;;;;;;;18.57;77.29;99305.86;129734;1093;23406;-60
2021/08/05 02:44:24;;;;;;;10.53;9.28;;;;;;;18.54;77.51;99301.78;129651;1093;114177;-60
2021/08/05 02:46:54;;;;;;;13.33;8.80;;;;;;;18.53;77.55;99304.84;129755;1092;22547;-60
2021/08/05 02:49:24;;;;;;;9.93;8.85;;;;;;;18.52;77.88;99304.03;129684;1093;114512;-60
2021/08/05 02:51:52;;;;;;;12.43;9.05;;;;;;;18.49;77.74;99295.56;129777;1093;22624;-60
2021/08/05 02:54:22;;;;;;;11.35;8.78;;;;;;;18.46;77.95;99301.74;129801;1093;23641;-60
2021/08/05 02:56:52;;;;;;;10.33;8.88;;;;;;;18.43;78.06;99302.36;129636;1093;113696;-60
2021/08/05 02:59:21;;;;;;;10.28;8.83;;;;;;;18.42;78.29;99301.55;129717;1093;23090;-60
2021/08/05 03:01:50;;;;;;;12.35;8.08;;;;;;;18.41;78.38;99302.67;129678;1093;113787;-60
2021/08/05 03:04:20;;;;;;;11.60;9.20;;;;;;;18.40;78.78;99292.77;129796;1093;22551;-60
2021/08/05 03:06:49;;;;;;;11.28;9.28;;;;;;;18.40;79.03;99300.23;129768;1093;22594;-60
2021/08/05 03:09:18;;;;;;;9.88;8.88;;;;;;;18.40;78.95;99291.95;129678;1093;114210;-60
2021/08/05 03:12:03;;;;;;;10.70;8.93;;;;;;;18.42;79.35;99292.45;129777;1092;22584;-60
2021/08/05 03:14:32;;;;;;;10.25;8.68;;;;;;;18.43;79.46;99294.91;129699;1093;114108;-60
2021/08/05 03:17:01;;;;;;;16.40;9.80;;;;;;;18.46;79.55;99288.77;129785;1093;22612;-60
2021/08/05 03:19:31;;;;;;;11.15;9.48;;;;;;;18.49;79.88;99290.86;129652;1093;114154;-60
2021/08/05 03:21:59;;;;;;;10.93;9.10;;;;;;;18.53;79.92;99297.39;129791;1093;23428;-60
2021/08/05 03:24:28;;;;;;;14.30;8.73;;;;;;;18.56;79.93;99294.00;129797;1093;22534;-60
2021/08/05 03:26:57;;;;;;;13.90;9.85;;;;;;;18.62;79.92;99292.75;129669;1092;113794;-60
2021/08/05 03:29:26;;;;;;;11.68;9.48;;;;;;;18.69;79.83;99289.55;129781;1093;22547;-60
2021/08/05 03:31:56;;;;;;;11.95;9.65;;;;;;;18.74;79.67;99283.91;129694;1093;113760;-60
2021/08/05 03:34:24;;;;;;;12.48;9.23;;;;;;;18.81;79.55;99291.72;129803;1093;23483;-63
2021/08/05 03:36:53;;;;;;;11.70;9.68;;;;;;;18.88;79.23;99289.33;129779;1092;22578;-61
2021/08/05 03:39:22;;;;;;;13.07;9.37;;;;;;;18.94;79.13;99291.61;129166;1093;113862;-58
2021/08/05 03:41:51;;;;;;;12.98;10.23;;;;;;;18.99;78.99;99282.38;125234;1093;25450;-58
2021/08/05 03:44:20;;;;;;;13.30;10.00;;;;;;;19.04;78.71;99283.03;125150;1093;114155;-58
2021/08/05 03:46:49;;;;;;;16.00;9.83;;;;;;;19.09;78.61;99287.60;125213;1093;25636;-58
2021/08/05 03:49:18;;;;;;;12.10;9.25;;;;;;;19.12;78.24;99283.39;129526;1092;113898;-58
2021/08/05 03:51:47;;;;;;;11.70;9.88;;;;;;;19.16;78.13;99287.97;129787;1093;22555;-58
2021/08/05 03:54:16;;;;;;;13.48;10.00;;;;;;;19.21;78.14;99285.04;129801;1093;22638;-58
2021/08/05 03:56:45;;;;;;;12.28;10.08;;;;;;;19.26;77.89;99293.19;129677;1093;114019;-58
2021/08/05 03:59:14;;;;;;;12.75;10.13;;;;;;;19.32;78.41;99282.81;129814;1092;22576;-58
2021/08/05 04:01:43;;;;;;;15.73;10.10;;;;;;;19.37;77.99;99286.22;129678;1092;114414;-59
2021/08/05 04:04:12;;;;;;;15.08;9.93;;;;;;;19.42;77.76;99286.08;129766;1093;22517;-58
2021/08/05 04:06:41;;;;;;;15.65;9.20;;;;;;;19.46;77.90;99289.02;129772;1093;23298;-58
2021/08/05 04:09:12;;;;;;;10.85;9.70;;;;;;;19.52;77.70;99290.50;129689;1093;114008;-58
2021/08/05 04:11:41;;;;;;;11.73;8.27;;;;;;;19.57;77.28;99290.36;129789;1093;22546;-58
2021/08/05 04:14:09;;;;;;;9.93;8.93;;;;;;;19.61;77.38;99282.25;129664;1093;113798;-59
2021/08/05 04:16:39;;;;;;;12.40;9.30;;;;;;;19.66;76.81;99282.88;129802;1093;22623;-58
2021/08/05 04:19:08;;;;;;;11.60;8.23;;;;;;;19.69;77.07;99276.71;129680;1093;113705;-58
2021/08/05 04:21:37;;;;;;;11.80;9.35;;;;;;;19.74;76.70;99289.58;129778;1093;22574;-58
2021/08/05 04:24:13;;;;;;;13.07;9.80;;;;;;;19.78;76.78;99285.00;129775;1093;22543;-58
2021/08/05 04:26:48;;;;;;;9.10;8.20;;;;;;;19.81;76.62;99278.83;129690;1092;113814;-58
2021/08/05 04:29:17;;;;;;;12.80;9.63;;;;;;;19.84;76.44;99282.91;129759;1093;22647;-58
2021/08/05 04:31:47;;;;;;;12.93;9.35;;;;;;;19.86;76.59;99275.09;129707;1093;114019;-58
2021/08/05 04:34:16;;;;;;;17.20;9.18;;;;;;;19.89;76.46;99282.75;129777;1093;23362;-58
2021/08/05 04:36:46;;;;;;;13.38;10.23;;;;;;;19.92;76.11;99276.55;129802;1092;22602;-58
2021/08/05 04:39:14;;;;;;;11.63;9.10;;;;;;;19.95;76.12;99278.66;129685;1093;114416;-58
2021/08/05 04:41:44;;;;;;;13.40;10.15;;;;;;;19.98;76.22;99276.06;129762;1092;22593;-58
2021/08/05 04:44:13;;;;;;;10.70;9.48;;;;;;;20.02;75.79;99263.22;129668;1093;114207;-58
2021/08/05 04:46:41;;;;;;;13.15;8.63;;;;;;;20.07;75.85;99265.80;129768;1096;22608;-58
2021/08/05 04:49:11;;;;;;;15.53;9.98;;;;;;;20.13;75.66;99267.27;129674;1092;114178;-58
2021/08/05 04:51:40;;;;;;;12.68;8.93;;;;;;;20.20;75.57;99266.76;129781;1092;22562;-58
2021/08/05 04:54:10;;;;;;;12.40;9.65;;;;;;;20.29;75.30;99269.53;129808;1093;22519;-58
2021/08/05 04:56:39;;;;;;;10.50;8.83;;;;;;;20.38;75.00;99259.28;129646;1093;113928;-58
2021/08/05 04:59:08;;;;;;;12.98;9.00;;;;;;;20.51;74.60;99261.03;129796;1092;22564;-58
2021/08/05 05:01:36;;;;;;;11.93;9.88;;;;;;;20.63;74.12;99272.22;129693;1093;114244;-59
2021/08/05 05:04:06;;;;;;;10.55;9.03;;;;;;;20.77;73.84;99270.09;129825;1093;22533;-59
2021/08/05 05:06:36;;;;;;;12.98;9.30;;;;;;;20.88;73.39;99267.76;129789;1093;22578;-58
2021/08/05 05:09:05;;;;;;;19.50;9.83;;;;;;;20.98;72.99;99259.06;129671;1093;113609;-58
2021/08/05 05:11:34;;;;;;;11.75;9.18;;;;;;;21.07;72.60;99262.59;129825;1093;23142;-59
2021/08/05 05:14:03;;;;;;;14.65;10.43;;;;;;;21.12;72.43;99267.95;129701;1093;113819;-58
2021/08/05 05:16:32;;;;;;;14.18;8.85;;;;;;;21.16;72.11;99263.38;129787;1093;22549;-59
2021/08/05 05:19:01;;;;;;;12.18;9.35;;;;;;;21.19;71.91;99270.25;129755;1093;22538;-58
2021/08/05 05:21:33;;;;;;;11.58;10.30;;;;;;;21.20;72.22;99271.88;129637;1093;113707;-59
2021/08/05 05:24:02;;;;;;;15.18;9.50;;;;;;;21.23;72.21;99279.50;129793;1093;23045;-59
2021/08/05 05:26:37;;;;;;;12.33;10.43;;;;;;;21.26;72.22;99270.52;129673;1092;113809;-58
2021/08/05 05:29:06;;;;;;;13.83;9.45;;;;;;;21.30;72.22;99265.13;129818;1092;22546;-59
2021/08/05 05:31:35;;;;;;;20.65;10.68;;;;;;;21.33;71.97;99267.23;129698;1092;114475;-59
2021/08/05 05:34:05;;;;;;;18.45;10.10;;;;;;;21.35;71.76;99262.95;129806;1092;22560;-59
2021/08/05 05:36:33;;;;;;;12.85;10.20;;;;;;;21.37;72.05;99268.98;129827;1093;22551;-58
2021/08/05 05:39:08;;;;;;;15.13;11.03;;;;;;;21.40;72.13;99268.31;129700;1093;113547;-59
2021/08/05 05:41:37;;;;;;;16.85;12.33;;;;;;;21.44;72.15;99272.05;129748;1093;23457;-58
2021/08/05 05:44:06;;;;;;;20.38;11.55;;;;;;;21.48;72.10;99278.55;129681;1093;114079;-58
2021/08/05 05:46:35;;;;;;;15.75;12.25;;;;;;;21.57;72.00;99272.13;129797;1093;23145;-59
2021/08/05 05:49:04;;;;;;;17.63;10.80;;;;;;;21.66;72.30;99273.67;129802;1093;22580;-59
2021/08/05 05:51:34;;;;;;;16.43;10.50;;;;;;;21.77;71.56;99274.11;129702;1093;113981;-59
2021/08/05 05:54:05;;;;;;;19.45;11.40;;;;;;;21.90;71.53;99277.76;129763;1093;22535;-59
2021/08/05 05:56:34;;;;;;;15.80;11.00;;;;;;;22.03;70.73;99262.82;129636;1093;114639;-59
2021/08/05 05:59:03;;;;;;;12.78;10.43;;;;;;;22.16;70.36;99267.27;129729;1093;22568;-59
2021/08/05 06:01:32;;;;;;;13.75;10.03;;;;;;;22.30;69.80;99278.89;129715;1092;115608;-58
2021/08/05 06:04:01;;;;;;;13.27;10.73;;;;;;;22.42;69.11;99264.23;129784;1093;22597;-59
2021/08/05 06:06:30;;;;;;;13.90;10.15;;;;;;;22.50;68.87;99271.67;129758;1092;22619;-58
2021/08/05 06:09:01;;;;;;;16.45;11.53;;;;;;;22.57;68.05;99274.68;129642;1092;114162;-59
2021/08/05 06:11:30;;;;;;;11.90;9.95;;;;;;;22.61;68.29;99266.48;129789;1092;23175;-58
2021/08/05 06:14:00;;;;;;;17.20;12.00;;;;;;;22.65;68.05;99273.76;129671;1093;113974;-59
2021/08/05 06:16:29;;;;;;;13.95;11.80;;;;;;;22.68;67.43;99259.19;129795;1093;22598;-59
2021/08/05 06:18:58;;;;;;;11.65;10.20;;;;;;;22.71;67.22;99264.06;129802;1093;22558;-59
2021/08/05 06:21:27;;;;;;;16.73;11.30;;;;;;;22.77;67.11;99262.73;129704;1092;113981;-59
2021/08/05 06:23:57;;;;;;;13.93;10.90;;;;;;;22.80;66.72;99266.75;129767;1093;23179;-59
2021/08/05 06:26:25;;;;;;;16.83;11.88;;;;;;;22.84;66.17;99262.95;129674;1092;114125;-59
2021/08/05 06:28:54;;;;;;;17.40;12.10;;;;;;;22.86;65.99;99263.42;129774;1092;22659;-59
2021/08/05 06:31:23;;;;;;;17.38;12.10;;;;;;;22.88;66.00;99261.11;129690;1093;114296;-58
2021/08/05 06:33:52;;;;;;;15.93;11.93;;;;;;;22.93;65.79;99262.05;129771;1093;23290;-59
2021/08/05 06:36:22;;;;;;;16.30;11.70;;;;;;;22.97;66.56;99262.95;129806;1092;23016;-59
2021/08/05 06:38:52;;;;;;;14.45;12.73;;;;;;;23.04;66.47;99264.02;129666;1092;114092;-59
2021/08/05 06:41:21;;;;;;;20.13;12.85;;;;;;;23.12;66.75;99257.52;129774;1093;22592;-59
2021/08/05 06:43:55;;;;;;;20.25;12.90;;;;;;;23.19;66.03;99259.73;129663;1094;113644;-59
2021/08/05 06:46:27;;;;;;;17.95;12.28;;;;;;;23.24;65.54;99259.48;129785;1093;22581;-59
2021/08/05 06:48:56;;;;;;;21.00;12.40;;;;;;;23.29;65.80;99259.25;129772;1092;22595;-59
2021/08/05 06:51:25;;;;;;;13.60;12.08;;;;;;;23.35;65.07;99257.06;129677;1093;114267;-59
2021/08/05 06:53:54;;;;;;;15.00;12.98;;;;;;;23.36;65.49;99258.69;129785;1093;22595;-59
2021/08/05 06:56:25;;;;;;;15.85;11.90;;;;;;;23.36;65.14;99256.72;129693;1093;114187;-59
2021/08/05 06:58:54;;;;;;;15.28;12.63;;;;;;;23.36;65.08;99253.94;129771;1093;22583;-59
2021/08/05 07:01:23;;;;;;;13.60;11.75;;;;;;;23.36;64.98;99248.38;129669;1093;114235;-59
2021/08/05 07:03:51;;;;;;;16.38;13.25;;;;;;;23.37;65.08;99241.66;129753;1093;23046;-59
2021/08/05 07:06:20;;;;;;;15.08;13.15;;;;;;;23.38;65.01;99243.25;129783;1093;23066;-59
2021/08/05 07:08:51;;;;;;;17.13;11.63;;;;;;;23.41;65.13;99234.21;129682;1092;114170;-59
2021/08/05 07:11:20;;;;;;;18.48;12.48;;;;;;;23.46;64.26;99238.73;129755;1092;22961;-59
2021/08/05 07:13:49;;;;;;;20.23;12.78;;;;;;;23.46;64.07;99233.17;129644;1093;114298;-59
2021/08/05 07:16:19;;;;;;;17.33;11.43;;;;;;;23.48;64.17;99236.42;129768;1093;22572;-59
2021/08/05 07:18:48;;;;;;;14.93;11.00;;;;;;;23.50;63.96;99231.32;129794;1093;23348;-59
2021/08/05 07:21:17;;;;;;;15.80;10.50;;;;;;;23.54;63.38;99235.03;129688;1092;114408;-59
2021/08/05 07:23:46;;;;;;;11.28;9.53;;;;;;;23.53;63.29;99225.06;129781;1093;23243;-59
2021/08/05 07:26:14;;;;;;;12.45;8.75;;;;;;;23.56;62.45;99214.05;129650;1093;114054;-59
2021/08/05 07:28:43;;;;;;;11.60;9.45;;;;;;;23.58;62.25;99214.52;129781;1093;23323;-59
2021/08/05 07:31:12;;;;;;;13.23;8.78;;;;;;;23.59;62.42;99204.20;129811;1092;22545;-59
2021/08/05 07:33:44;;;;;;;11.53;9.30;;;;;;;23.61;62.33;99208.25;129684;1093;113999;-59
2021/08/05 07:36:12;;;;;;;13.05;9.28;;;;;;;23.62;62.25;99217.41;128936;1093;22826;-58
2021/08/05 07:38:42;;;;;;;11.85;8.90;;;;;;;23.63;62.30;99202.34;125150;1093;114006;-58
2021/08/05 07:41:11;;;;;;;9.45;7.95;;;;;;;23.67;62.48;99202.42;125319;1093;22786;-59
2021/08/05 07:43:40;;;;;;;9.63;8.10;;;;;;;23.73;62.30;99198.24;125227;1093;113611;-58
2021/08/05 07:46:09;;;;;;;10.88;7.93;;;;;;;23.79;61.98;99194.06;125228;1093;23338;-58
2021/08/05 07:48:38;;;;;;;10.45;8.25;;;;;;;23.85;61.75;99193.44;125273;1092;22794;-59
2021/08/05 07:51:07;;;;;;;11.20;8.93;;;;;;;23.90;61.56;99193.20;129613;1092;114001;-59
2021/08/05 07:53:36;;;;;;;13.13;9.40;;;;;;;23.95;62.18;99189.33;129793;1093;22589;-59
2021/08/05 07:56:05;;;;;;;14.65;8.25;;;;;;;24.00;62.08;99196.63;129711;1092;114184;-60
2021/08/05 07:58:37;;;;;;;11.70;9.63;;;;;;;24.06;62.31;99193.24;129816;1092;23445;-59
2021/08/05 08:01:06;;;;;;;12.98;9.28;;;;;;;24.12;62.17;99189.02;129832;1093;22541;-59
2021/08/05 08:03:35;;;;;;;13.18;8.60;;;;;;;24.18;61.93;99186.80;129665;1093;114053;-59
2021/08/05 08:06:05;;;;;;;10.73;8.75;;;;;;;24.24;61.95;99188.16;129778;1092;23255;-59
2021/08/05 08:08:33;;;;;;;9.90;7.75;;;;;;;24.29;62.07;99177.59;129699;1095;113949;-59
2021/08/05 08:11:08;;;;;;;23.43;7.95;;;;;;;24.35;61.07;99189.28;129782;1093;22571;-59
2021/08/05 08:13:57;;;;;;;10.50;6.88;;;;;;;24.41;60.17;99189.81;129672;1092;114167;-59
2021/08/05 08:16:26;;;;;;;7.68;6.90;;;;;;;24.46;61.37;99183.98;129751;1093;22685;-59
2021/08/05 08:18:56;;;;;;;12.10;7.98;;;;;;;24.50;61.71;99187.68;129812;1093;22572;-59
2021/08/05 08:21:24;;;;;;;10.60;7.70;;;;;;;24.54;61.86;99182.98;129679;1093;113292;-59
2021/08/05 08:23:53;;;;;;;8.50;7.50;;;;;;;24.56;61.61;99183.44;129807;1092;23343;-60
2021/08/05 08:26:24;;;;;;;10.15;8.43;;;;;;;24.56;62.23;99186.22;129672;1092;113805;-59
2021/08/05 08:28:52;;;;;;;14.35;9.03;;;;;;;24.57;62.55;99183.08;129821;1092;22595;-59
2021/08/05 08:31:21;;;;;;;10.80;8.58;;;;;;;24.56;61.86;99189.82;129776;1093;22535;-59
2021/08/05 08:33:50;;;;;;;12.50;9.05;;;;;;;24.54;61.78;99185.77;129667;1092;114029;-59
2021/08/05 08:36:36;;;;;;;10.33;8.90;;;;;;;24.52;61.76;99185.34;129784;1093;23011;-59
2021/08/05 08:39:09;;;;;;;9.95;8.78;;;;;;;24.48;61.68;99188.03;129660;1093;113884;-60
2021/08/05 08:41:39;;;;;;;14.15;9.55;;;;;;;24.45;61.79;99185.95;129789;1092;22565;-62
2021/08/05 08:44:08;;;;;;;22.58;10.10;;;;;;;24.46;61.81;99192.34;129673;1093;114127;-61
2021/08/05 08:46:38;;;;;;;10.63;7.30;;;;;;;24.46;61.43;99189.55;129777;1093;23169;-61
2021/08/05 08:49:08;;;;;;;13.53;7.40;;;;;;;24.46;60.08;99187.58;129725;1092;22666;-61
2021/08/05 08:51:37;;;;;;;13.23;7.55;;;;;;;24.45;59.93;99183.17;129655;1095;114024;-61
2021/08/05 08:54:07;;;;;;;13.38;7.68;;;;;;;24.47;59.83;99188.39;129746;1093;22679;-61
2021/08/05 08:56:37;;;;;;;11.85;7.15;;;;;;;24.45;59.30;99188.74;129648;1093;114002;-61
2021/08/05 08:59:06;;;;;;;10.58;7.15;;;;;;;24.44;59.44;99175.98;129766;1093;23604;-61
2021/08/05 09:01:39;;;;;;;12.30;7.80;;;;;;;24.44;58.66;99180.74;129673;1093;114158;-62
2021/08/05 09:04:09;;;;;;;9.48;7.50;;;;;;;24.40;59.09;99177.05;129802;1093;22514;-61
2021/08/05 09:06:40;;;;;;;52.20;13.58;;;;;;;24.40;59.84;99177.86;129806;1093;23025;-61
2021/08/05 09:09:09;;;;;;;16.50;9.35;;;;;;;24.44;60.22;99180.74;129627;1093;114254;-61
2021/08/05 09:11:38;;;;;;;9.50;7.48;;;;;;;24.48;59.18;99176.08;129801;1092;22635;-61
2021/08/05 09:14:51;;;;;;;10.37;8.23;;;;;;;24.50;59.38;99177.34;129706;1093;113994;-62
2021/08/05 09:17:35;;;;;;;24.65;9.30;;;;;;;24.46;59.38;99170.06;129805;1093;22574;-61
2021/08/05 09:20:07;;;;;;;10.70;9.10;;;;;;;24.53;58.98;99178.58;129649;1093;114135;-61
2021/08/05 09:22:40;;;;;;;9.88;8.25;;;;;;;24.51;59.63;99178.16;129762;1093;22590;-61
2021/08/05 09:25:18;;;;;;;10.45;8.15;;;;;;;24.55;60.73;99182.63;129771;1093;22554;-61
2021/08/05 09:27:47;;;;;;;9.85;8.23;;;;;;;24.64;60.32;99179.68;129708;1093;113939;-61
2021/08/05 09:30:37;;;;;;;13.38;8.90;;;;;;;24.74;60.51;99172.75;129789;1093;23568;-61
2021/08/05 09:33:13;;;;;;;10.53;8.65;;;;;;;24.81;60.31;99167.36;129669;1093;113817;-61
2021/08/05 09:35:48;;;;;;;14.80;8.63;;;;;;;24.88;60.59;99165.55;129806;1093;22541;-62
2021/08/05 09:38:27;;;;;;;12.05;8.23;;;;;;;24.98;60.50;99169.77;129677;1093;114116;-61
2021/08/05 09:41:14;;;;;;;9.55;8.15;;;;;;;25.08;60.70;99160.88;129805;1093;22557;-59
2021/08/05 09:43:43;;;;;;;10.80;8.80;;;;;;;25.21;61.43;99158.77;129720;1093;114267;-59
2021/08/05 09:46:13;;;;;;;9.95;8.43;;;;;;;25.34;60.92;99163.05;129757;1093;22542;-59
2021/08/05 09:48:44;;;;;;;9.60;8.15;;;;;;;25.45;60.32;99155.70;129792;1093;22558;-59
2021/08/05 09:51:16;;;;;;;8.83;7.93;;;;;;;25.56;59.99;99148.36;129678;1092;114009;-59
2021/08/05 09:53:53;;;;;;;11.35;7.93;;;;;;;25.65;59.73;99151.79;129789;1092;22570;-59
2021/08/05 09:56:22;;;;;;;11.05;8.18;;;;;;;25.76;59.85;99151.19;129658;1093;113866;-59
2021/08/05 09:58:50;;;;;;;11.68;8.75;;;;;;;25.85;59.99;99157.34;129768;1096;23294;-59
2021/08/05 10:01:20;;;;;;;9.05;7.98;;;;;;;25.91;58.21;99153.09;129757;1093;22548;-59
2021/08/05 10:03:49;;;;;;;9.85;7.90;;;;;;;25.94;59.33;99144.79;129674;1093;114109;-59
2021/08/05 10:06:18;;;;;;;20.35;9.73;;;;;;;25.98;59.23;99140.06;129783;1092;22533;-59
2021/08/05 10:08:48;;;;;;;19.18;9.45;;;;;;;26.05;59.10;99139.41;129623;1095;114428;-59
2021/08/05 10:11:17;;;;;;;12.20;8.85;;;;;;;26.06;58.54;99132.64;129763;1095;22555;-59
2021/08/05 10:14:19;;;;;;;12.68;8.93;;;;;;;26.05;58.88;99140.21;129658;1092;114406;-59
2021/08/05 10:17:12;;;;;;;69.80;16.85;;;;;;;26.02;58.68;99135.36;129789;1092;22841;-59
2021/08/05 10:19:44;;;;;;;12.75;8.03;;;;;;;26.02;59.11;99134.55;129306;1093;114216;-59
2021/08/05 10:22:15;;;;;;;11.98;8.35;;;;;;;26.04;59.49;99140.58;129722;1093;22617;-59
2021/08/05 10:24:47;;;;;;;9.35;8.35;;;;;;;26.08;59.83;99135.06;129768;1092;22602;-59
2021/08/05 10:27:17;;;;;;;10.15;8.23;;;;;;;26.15;59.71;99135.98;129689;1092;113424;-59
2021/08/05 10:29:48;;;;;;;9.33;7.43;;;;;;;26.25;59.80;99126.21;129749;1095;22557;-58
2021/08/05 10:32:17;;;;;;;11.10;7.85;;;;;;;26.32;59.14;99121.58;129698;1092;113918;-59
2021/08/05 10:34:46;;;;;;;10.45;7.68;;;;;;;26.35;57.58;99108.85;129811;1092;22558;-59
2021/08/05 10:37:18;;;;;;;10.78;7.73;;;;;;;26.35;58.52;99114.44;129745;1093;22676;-59
2021/08/05 10:39:47;;;;;;;8.75;7.60;;;;;;;26.35;58.09;99114.44;129677;1093;114144;-59
2021/08/05 10:42:18;;;;;;;11.18;8.38;;;;;;;26.31;57.45;99117.16;129801;1092;22569;-59
2021/08/05 10:44:48;;;;;;;8.20;7.25;;;;;;;26.28;58.32;99117.06;129650;1093;114135;-59
2021/08/05 10:47:19;;;;;;;8.60;7.07;;;;;;;26.28;58.05;99115.11;129797;1093;22545;-59
2021/08/05 10:49:50;;;;;;;7.93;6.88;;;;;;;26.33;58.55;99109.22;129688;1093;113918;-59
2021/08/05 10:52:34;;;;;;;11.30;7.38;;;;;;;26.39;57.96;99112.52;129740;1092;22591;-59
2021/08/05 10:55:04;;;;;;;8.98;7.35;;;;;;;26.46;59.29;99115.42;129788;1092;22551;-59
2021/08/05 10:57:33;;;;;;;8.60;6.83;;;;;;;26.54;58.94;99113.56;129682;1093;113975;-59
2021/08/05 11:00:11;;;;;;;10.05;6.65;;;;;;;26.64;58.91;99104.53;129726;1093;22547;-59
2021/08/05 11:02:52;;;;;;;8.75;6.85;;;;;;;26.71;57.83;99102.64;129668;1092;114325;-59
2021/08/05 11:05:23;;;;;;;7.68;6.45;;;;;;;26.82;58.18;99097.23;129812;1093;23318;-60
2021/08/05 11:07:55;;;;;;;8.38;6.65;;;;;;;26.86;57.44;99097.27;129673;1093;114325;-59
2021/08/05 11:10:25;;;;;;;8.48;6.75;;;;;;;26.87;56.60;99099.69;129779;1093;22607;-60
2021/08/05 11:13:08;;;;;;;8.58;7.28;;;;;;;26.86;56.29;99088.88;129757;1093;22568;-60
2021/08/05 11:15:39;;;;;;;9.98;6.38;;;;;;;26.85;56.43;99096.46;129691;1093;113807;-60
2021/08/05 11:18:17;;;;;;;10.00;6.03;;;;;;;26.87;57.04;99090.50;129800;1092;22562;-60
2021/08/05 11:21:07;;;;;;;8.70;6.93;;;;;;;26.89;56.85;99091.73;129714;1093;114416;-60
2021/08/05 11:23:37;;;;;;;11.85;7.85;;;;;;;26.89;56.66;99086.15;129799;1092;22568;-60
2021/08/05 11:26:10;;;;;;;12.65;7.65;;;;;;;26.87;56.32;99077.33;129681;1093;114216;-61
2021/08/05 11:28:46;;;;;;;11.25;8.00;;;;;;;26.81;56.04;99073.27;129778;1093;22601;-60
2021/08/05 11:31:33;;;;;;;22.85;10.28;;;;;;;26.70;55.97;99072.27;129790;1092;23239;-60
2021/08/05 11:34:07;;;;;;;17.38;8.40;;;;;;;26.56;56.03;99069.27;129685;1093;114060;-60